createdAt,value
2022-11-23T00:01:38.260Z,51.64
2022-11-23T00:06:41.085Z,51.62
2022-11-23T00:11:44.419Z,51.76
2022-11-23T00:22:06.004Z,51.82
2022-11-23T00:27:08.104Z,51.80
2022-11-23T00:32:10.251Z,51.80
2022-11-23T00:37:12.687Z,52.04
2022-11-23T00:42:14.812Z,52.13
2022-11-23T00:47:16.845Z,52.05
2022-11-23T00:52:18.862Z,52.12
2022-11-23T00:57:21.028Z,51.97
2022-11-23T01:02:23.381Z,51.90
2022-11-23T01:07:25.605Z,52.22
2022-11-23T01:12:30.049Z,52.16
2022-11-23T01:17:32.172Z,52.20
2022-11-23T01:22:34.274Z,52.27
2022-11-23T01:27:36.513Z,52.19
2022-11-23T01:32:38.588Z,52.25
2022-11-23T01:37:40.671Z,52.20
2022-11-23T01:43:07.331Z,52.19
2022-11-23T01:48:18.357Z,52.24
2022-11-23T01:53:21.348Z,52.45
2022-11-23T01:58:25.968Z,52.53
2022-11-23T02:03:30.744Z,52.38
2022-11-23T02:08:32.968Z,52.29
2022-11-23T02:13:36.999Z,52.47
2022-11-23T02:18:43.014Z,52.64
2022-11-23T02:23:57.163Z,52.77
2022-11-23T02:29:07.915Z,52.89
2022-11-23T02:34:10.059Z,52.87
2022-11-23T02:39:21.175Z,52.84
2022-11-23T02:44:41.875Z,52.95
2022-11-23T02:49:47.981Z,53.02
2022-11-23T02:54:50.084Z,52.96
2022-11-23T02:59:53.516Z,52.80
2022-11-23T03:04:55.596Z,52.50
2022-11-23T03:09:57.634Z,52.43
2022-11-23T03:15:00.539Z,52.66
2022-11-23T03:20:05.103Z,52.71
2022-11-23T03:25:12.464Z,52.91
2022-11-23T03:30:15.747Z,52.85
2022-11-23T03:35:18.744Z,52.90
2022-11-23T03:40:40.711Z,53.04
2022-11-23T03:45:54.848Z,53.19
2022-11-23T03:50:57.644Z,53.27
2022-11-23T03:56:00.191Z,53.47
2022-11-23T04:01:07.912Z,53.34
2022-11-23T04:06:10.341Z,53.59
2022-11-23T04:11:35.018Z,53.40
2022-11-23T04:16:37.265Z,53.34
2022-11-23T04:21:39.945Z,53.30
2022-11-23T04:26:43.341Z,53.55
2022-11-23T04:31:46.568Z,53.70
2022-11-23T04:36:51.962Z,53.83
2022-11-23T04:41:59.782Z,53.88
2022-11-23T04:47:02.070Z,53.92
2022-11-23T04:52:05.233Z,53.89
2022-11-23T04:57:12.380Z,53.73
2022-11-23T05:02:15.082Z,53.85
2022-11-23T05:07:37.521Z,53.95
2022-11-23T05:12:39.703Z,53.91
2022-11-23T05:17:43.508Z,53.87
2022-11-23T05:22:51.959Z,53.62
2022-11-23T05:27:59.177Z,53.80
2022-11-23T05:33:06.161Z,53.79
2022-11-23T05:38:08.599Z,53.83
2022-11-23T05:43:10.866Z,54.02
2022-11-23T05:48:13.185Z,54.16
2022-11-23T05:53:27.914Z,54.35
2022-11-23T05:58:37.020Z,54.33
2022-11-23T06:03:39.248Z,54.56
2022-11-23T06:08:44.408Z,54.64
2022-11-23T06:13:50.684Z,54.68
2022-11-23T06:18:53.482Z,54.65
2022-11-23T06:23:55.852Z,54.78
2022-11-23T06:28:58.695Z,54.95
2022-11-23T06:34:00.968Z,54.98
2022-11-23T06:39:06.666Z,54.89
2022-11-23T06:44:09.939Z,54.65
2022-11-23T06:49:19.614Z,54.28
2022-11-23T06:54:32.193Z,54.17
2022-11-23T06:59:39.455Z,54.16
2022-11-23T07:04:44.444Z,54.16
2022-11-23T07:09:54.524Z,54.32
2022-11-23T07:15:07.924Z,54.65
2022-11-23T07:20:13.355Z,54.73
2022-11-23T07:25:19.496Z,54.57
2022-11-23T07:30:25.257Z,54.58
2022-11-23T07:35:33.023Z,54.56
2022-11-23T07:40:38.961Z,54.65
2022-11-23T07:45:47.020Z,54.31
2022-11-23T07:50:55.417Z,53.82
2022-11-23T07:55:58.949Z,53.98
2022-11-23T08:01:01.165Z,54.02
2022-11-23T08:06:03.457Z,53.90
2022-11-23T08:11:09.609Z,54.05
2022-11-23T08:16:11.927Z,53.83
2022-11-23T08:21:14.384Z,53.84
2022-11-23T08:26:16.668Z,53.88
2022-11-23T08:31:18.708Z,53.71
2022-11-23T08:36:21.247Z,53.99
2022-11-23T08:41:23.371Z,54.09
2022-11-23T08:46:25.488Z,54.22
2022-11-23T08:51:27.676Z,54.13
2022-11-23T08:56:29.733Z,54.09
2022-11-23T09:01:32.051Z,54.26
2022-11-23T09:06:34.899Z,54.29
2022-11-23T09:11:36.966Z,54.53
2022-11-23T09:16:39.072Z,54.51
2022-11-23T09:21:43.034Z,54.64
2022-11-23T09:26:45.183Z,54.89
2022-11-23T09:31:47.228Z,54.88
2022-11-23T09:36:49.324Z,54.90
2022-11-23T09:42:03.606Z,54.93
2022-11-23T09:47:22.174Z,54.43
2022-11-23T09:52:25.534Z,54.77
2022-11-23T09:57:32.608Z,54.67
2022-11-23T10:02:40.630Z,54.71
2022-11-23T10:07:42.599Z,54.87
2022-11-23T10:12:59.863Z,55.16
2022-11-23T10:18:20.304Z,55.12
2022-11-23T10:23:31.235Z,55.06
2022-11-23T10:28:33.281Z,55.13
2022-11-23T10:33:44.089Z,55.59
2022-11-23T10:38:51.448Z,55.34
2022-11-23T10:44:19.982Z,55.37
2022-11-23T10:49:26.366Z,55.59
2022-11-23T10:54:30.530Z,55.85
2022-11-23T10:59:38.759Z,56.27
2022-11-23T11:04:40.880Z,56.06
2022-11-23T11:09:43.031Z,56.39
2022-11-23T11:15:18.853Z,56.97
2022-11-23T11:20:28.393Z,57.69
2022-11-23T11:25:36.016Z,58.51
2022-11-23T11:31:10.127Z,59.38
2022-11-23T11:36:14.857Z,59.38
2022-11-23T11:41:25.003Z,59.36
2022-11-23T11:46:37.180Z,60.02
2022-11-23T11:51:47.645Z,60.63
2022-11-23T11:56:52.095Z,60.56
2022-11-23T12:02:11.034Z,60.71
2022-11-23T12:07:22.413Z,61.21
2022-11-23T12:12:29.568Z,60.78
2022-11-23T12:17:37.981Z,60.82
2022-11-23T12:23:09.749Z,61.52
2022-11-23T12:29:13.169Z,61.19
2022-11-23T12:34:43.121Z,61.76
2022-11-23T12:40:09.530Z,62.40
2022-11-23T12:45:37.567Z,62.18
2022-11-23T12:50:58.024Z,62.74
2022-11-23T12:56:18.495Z,63.16
2022-11-23T13:01:30.792Z,62.90
2022-11-23T13:12:51.216Z,63.37
2022-11-23T13:18:05.419Z,63.26
2022-11-23T13:23:08.451Z,63.43
2022-11-23T13:28:31.061Z,63.45
2022-11-23T13:33:38.575Z,63.77
2022-11-23T13:38:44.388Z,64.06
2022-11-23T13:43:47.171Z,64.17
2022-11-23T13:48:57.077Z,64.49
2022-11-23T13:54:03.615Z,64.02
2022-11-23T13:59:21.267Z,64.31
2022-11-23T14:04:25.342Z,64.33
2022-11-23T14:09:34.058Z,64.25
2022-11-23T14:14:49.755Z,64.80
2022-11-23T14:20:06.900Z,65.02
2022-11-23T14:25:24.201Z,66.04
2022-11-23T14:31:01.167Z,66.03
2022-11-23T14:36:18.648Z,67.18
2022-11-23T14:41:23.859Z,67.17
2022-11-23T14:46:26.088Z,67.30
2022-11-23T14:51:29.076Z,67.06
2022-11-23T14:56:31.243Z,66.87
2022-11-23T15:01:34.955Z,66.71
2022-11-23T15:06:45.911Z,67.30
2022-11-23T15:11:49.381Z,66.69
2022-11-23T15:16:51.622Z,67.02
2022-11-23T15:21:53.928Z,66.74
2022-11-23T15:27:09.488Z,66.71
2022-11-23T15:32:31.264Z,66.46
2022-11-23T15:37:50.264Z,66.22
2022-11-23T15:42:52.360Z,66.48
2022-11-23T15:47:54.482Z,66.16
2022-11-23T15:53:00.515Z,65.75
2022-11-23T15:58:08.034Z,65.59
2022-11-23T16:03:42.784Z,65.39
2022-11-23T16:08:45.266Z,65.12
2022-11-23T16:13:47.298Z,64.99
2022-11-23T16:18:57.173Z,64.59
2022-11-23T16:23:59.210Z,64.01
2022-11-23T16:29:02.571Z,63.60
2022-11-23T16:34:13.740Z,63.08
2022-11-23T16:39:16.145Z,62.97
2022-11-23T16:44:19.212Z,62.88
2022-11-23T16:49:24.290Z,62.41
2022-11-23T16:54:26.383Z,61.83
2022-11-23T16:59:28.433Z,61.22
2022-11-23T17:04:30.553Z,61.04
2022-11-23T17:09:33.053Z,60.93
2022-11-23T17:14:39.274Z,60.75
2022-11-23T17:19:41.423Z,60.07
2022-11-23T17:24:43.740Z,59.85
2022-11-23T17:29:46.597Z,59.58
2022-11-23T17:34:48.729Z,59.34
2022-11-23T17:39:51.159Z,59.55
2022-11-23T17:44:53.487Z,59.37
2022-11-23T17:49:56.280Z,58.76
2022-11-23T17:54:58.393Z,58.87
2022-11-23T18:00:03.257Z,58.83
2022-11-23T18:05:19.678Z,58.37
2022-11-23T18:10:23.737Z,58.09
2022-11-23T18:15:26.230Z,58.09
2022-11-23T18:20:28.320Z,58.34
2022-11-23T18:25:30.505Z,57.96
2022-11-23T18:30:32.737Z,57.67
2022-11-23T18:35:34.849Z,57.57
2022-11-23T18:40:36.928Z,57.49
2022-11-23T18:45:39.011Z,57.46
2022-11-23T18:50:41.696Z,57.45
2022-11-23T18:55:43.888Z,57.12
2022-11-23T19:00:46.380Z,57.14
2022-11-23T19:05:48.341Z,57.05
2022-11-23T19:10:50.497Z,57.47
2022-11-23T19:15:52.505Z,57.09
2022-11-23T19:20:54.647Z,56.80
2022-11-23T19:26:01.722Z,56.64
2022-11-23T19:31:13.950Z,56.83
2022-11-23T19:36:18.587Z,56.95
2022-11-23T19:41:24.119Z,56.59
2022-11-23T19:46:31.742Z,56.50
2022-11-23T19:51:33.895Z,56.51
2022-11-23T19:56:37.484Z,56.54
2022-11-23T20:01:39.501Z,56.31
2022-11-23T20:06:42.716Z,56.27
2022-11-23T20:11:50.386Z,56.20
2022-11-23T20:16:53.087Z,56.13
2022-11-23T20:21:55.245Z,56.27
2022-11-23T20:26:57.365Z,56.21
2022-11-23T20:31:59.334Z,56.08
2022-11-23T20:37:01.383Z,56.01
2022-11-23T20:42:03.569Z,56.01
2022-11-23T20:47:05.657Z,55.96
2022-11-23T20:52:07.971Z,56.03
2022-11-23T20:57:10.243Z,55.87
2022-11-23T21:02:12.639Z,55.75
2022-11-23T21:07:14.796Z,55.85
2022-11-23T21:12:35.521Z,55.83
2022-11-23T21:17:37.586Z,55.78
2022-11-23T21:22:40.037Z,55.74
2022-11-23T21:27:42.641Z,55.40
2022-11-23T21:32:44.976Z,55.51
2022-11-23T21:37:49.035Z,55.61
2022-11-23T21:42:52.351Z,55.70
2022-11-23T21:47:55.199Z,55.50
2022-11-23T21:52:57.161Z,55.21
2022-11-23T21:57:59.243Z,55.14
2022-11-23T22:03:01.318Z,55.03
2022-11-23T22:08:33.534Z,55.16
2022-11-23T22:13:26.324Z,55.25
2022-11-23T22:18:29.712Z,55.32
2022-11-23T22:23:31.949Z,54.97
2022-11-23T22:28:35.730Z,54.86
2022-11-23T22:33:38.506Z,55.03
2022-11-23T22:38:41.117Z,54.92
2022-11-23T22:43:43.872Z,55.02
2022-11-23T22:48:47.549Z,54.66
2022-11-23T22:53:54.585Z,54.87
2022-11-23T22:58:56.824Z,54.83
2022-11-23T23:04:01.530Z,55.07
2022-11-23T23:09:06.345Z,54.92
2022-11-23T23:14:08.696Z,54.62
2022-11-23T23:19:11.870Z,54.71
2022-11-23T23:24:14.024Z,54.53
2022-11-23T23:29:16.001Z,54.35
2022-11-23T23:34:18.291Z,54.48
2022-11-23T23:39:20.353Z,54.47
2022-11-23T23:44:22.432Z,54.67
2022-11-23T23:49:26.509Z,54.46
2022-11-23T23:54:28.482Z,54.54
2022-11-23T23:59:30.494Z,54.77
